Buoy 44887

sailwx.info

Track history (hours):
 
Tides and Currents Weather Stations Pressure Air Temp Water Temp Dewpoint Dewpoint Depression Visibility Wind Speed Wind Dir Waves Ship Positions

Drifting buoy 44887

Last reported at 2018-Jun-22 03:00 UTC. Time now 2018-Jun-22 11:10 UTC.
Position N 36°39' W 036°50'.

Barometer 1028.0 mb
Water temperature 23.9 ° C

Date/timePositionNaut miles runAvg speedWind from/ knotsBaromVisibWave heightAir tempDewpointWater temp
2018-Jun-22 03:00N 36°39' W 036°50'1 0.8 1028.0 23.9
2018-Jun-22 02:00N 36°40' W 036°51'1 1.3 1028.2 24.0
2018-Jun-22 01:00N 36°41' W 036°52'1 1.0 1028.4 24.0
2018-Jun-22 00:00N 36°41' W 036°53'2 0.8 1028.5 24.0
2018-Jun-21 22:00N 36°41' W 036°55'0 0.5 1027.8 24.1
2018-Jun-21 21:00N 36°41' W 036°55'0 0.5 1027.5 24.1
2018-Jun-21 20:00N 36°41' W 036°56'1 1.1 1027.2 24.2
2018-Jun-21 19:00N 36°41' W 036°57'0 0.5 1027.0 24.3
2018-Jun-21 18:00N 36°41' W 036°58'1 0.8 1027.0 24.3
2018-Jun-21 17:00N 36°40' W 036°58'1 0.6 1027.3 24.3
2018-Jun-21 16:00N 36°40' W 036°58'0 0.0 1027.3 24.3
2018-Jun-21 15:00N 36°40' W 036°58'1 0.6 1027.6 24.2
2018-Jun-21 14:00N 36°40' W 036°58'0 0.0 1027.6 24.1
2018-Jun-21 13:00N 36°40' W 036°58'1 0.6 1027.7 24.1
2018-Jun-21 12:00N 36°41' W 036°58'1 0.6 1027.1 24.1
2018-Jun-21 11:00N 36°41' W 036°58'1 0.6 1026.9 24.0
2018-Jun-21 10:00N 36°42' W 036°58'1 1.1 1026.8 23.9
2018-Jun-21 09:00N 36°43' W 036°59'0 0.5 1026.4 23.9
2018-Jun-21 08:00N 36°43' W 037°00'1 1.0 1025.8 23.9
2018-Jun-21 07:00N 36°43' W 037°01'1 1.0 1025.4 23.9
2018-Jun-21 06:00N 36°43' W 037°02'1 1.1 1025.3 23.9
2018-Jun-21 05:00N 36°42' W 037°04'1 0.8 1025.3 23.8
2018-Jun-21 04:00N 36°41' W 037°04'0 0.0 1025.5 23.9
2018-Jun-21 03:00N 36°41' W 037°04'1 0.6 1025.7 23.9
2018-Jun-21 02:00N 36°41' W 037°04'0 0.0 1026.1 23.9
2018-Jun-21 01:00N 36°41' W 037°04'0 0.5 1026.4 23.9
2018-Jun-21 00:00N 36°41' W 037°04'0 0.0 1026.4 23.9
2018-Jun-20 23:00N 36°41' W 037°04'1 0.8 1026.1 23.9
2018-Jun-20 22:00N 36°41' W 037°03'0 0.5 1025.6 24.0
2018-Jun-20 21:00N 36°41' W 037°04'0 0.0 1025.2 24.0
2018-Jun-20 20:00N 36°41' W 037°04'1 0.8 1024.8 24.0
2018-Jun-20 19:00N 36°42' W 037°04'0 0.5 1024.5 24.1
2018-Jun-20 18:00N 36°42' W 037°05'0 0.5 1024.6 24.1
2018-Jun-20 17:00N 36°42' W 037°05'0 0.5 1024.5 24.0
2018-Jun-20 16:00N 36°42' W 037°06'1 0.8 1024.5 23.9
2018-Jun-20 15:00N 36°43' W 037°07'0 0.5 1024.6 23.6
2018-Jun-20 14:00N 36°43' W 037°07'0 0.0 1024.5 23.7
2018-Jun-20 13:00N 36°43' W 037°07'0 0.5 1024.5 23.6
2018-Jun-20 12:00N 36°43' W 037°08'1 0.8 1024.3 23.6
2018-Jun-20 11:00N 36°43' W 037°08'0 0.0 1024.1 23.5
2018-Jun-20 10:00N 36°43' W 037°08'0 0.5 1024.0 23.5
2018-Jun-20 09:00N 36°43' W 037°09'1 1.0 1023.5 23.5
2018-Jun-20 08:00N 36°43' W 037°10'0 0.5 1023.3 23.5
2018-Jun-20 07:00N 36°43' W 037°11'1 0.8 1022.8 23.5
2018-Jun-20 06:00N 36°43' W 037°11'1 0.8 1022.6 23.6
2018-Jun-20 05:00N 36°42' W 037°12'0 0.0 1022.8 23.6
2018-Jun-20 04:00N 36°42' W 037°12'1 0.6 1022.9 23.6
2018-Jun-20 03:00N 36°41' W 037°12'0 0.0 1023.2 23.6
2018-Jun-20 02:00N 36°41' W 037°12'0 0.0 1023.4 23.6
2018-Jun-20 01:00N 36°41' W 037°12'0 0.0 1024.0 23.6
2018-Jun-20 00:00N 36°41' W 037°12'0 0.0 1024.0 23.6
2018-Jun-19 23:00N 36°41' W 037°12'1 0.6 1023.6 23.7
2018-Jun-19 22:00N 36°42' W 037°12'0 0.0 1023.4 23.7
2018-Jun-19 21:00N 36°42' W 037°12'1 0.8 1023.5 23.7
2018-Jun-19 20:00N 36°43' W 037°13'0 0.0 1023.1 23.7
2018-Jun-19 19:00N 36°43' W 037°13'1 1.1 1023.1 23.7
2018-Jun-19 18:00N 36°43' W 037°14'0 0.5 1023.2 23.7
2018-Jun-19 17:00N 36°43' W 037°14'0 0.5 1023.2 23.7
2018-Jun-19 16:00N 36°43' W 037°15'0 0.0 1023.4 23.7
2018-Jun-19 15:00N 36°43' W 037°15'0 0.5 1023.4 23.6
2018-Jun-19 14:00N 36°43' W 037°16'1 0.6 1023.4 23.6
2018-Jun-19 13:00N 36°44' W 037°16'0 0.5 1023.2 23.6
2018-Jun-19 12:00N 36°44' W 037°16'0 0.5 1023.4 23.6
2018-Jun-19 11:00N 36°44' W 037°17'1 0.8 1023.0 23.6
2018-Jun-19 10:00N 36°44' W 037°17'0 0.5 1023.1 23.6
2018-Jun-19 09:00N 36°44' W 037°18'1 0.8 1022.8 23.6
2018-Jun-19 08:00N 36°45' W 037°19'1 1.0 1022.6 23.6
2018-Jun-19 07:00N 36°45' W 037°20'0 0.5 1022.5 23.6
2018-Jun-19 06:00N 36°45' W 037°20'1 0.8 1022.5 23.6
2018-Jun-19 05:00N 36°44' W 037°21'0 0.5 1022.6 23.6
2018-Jun-19 04:00N 36°44' W 037°22'0 0.0 1022.7 23.6
2018-Jun-19 03:00N 36°44' W 037°22'0 0.0 1022.9 23.6
2018-Jun-19 02:00N 36°44' W 037°22'1 0.8 1023.3 23.7
2018-Jun-19 01:00N 36°45' W 037°22'1 0.3 1023.6 23.7
2018-Jun-18 22:00N 36°45' W 037°23'1 0.8 1023.5 23.7
2018-Jun-18 21:00N 36°46' W 037°24'1 1.0 1023.8 23.8
2018-Jun-18 20:00N 36°46' W 037°25'0 0.5 1023.4 23.8
2018-Jun-18 19:00N 36°46' W 037°26'0 0.5 1023.5 23.8
2018-Jun-18 18:00N 36°46' W 037°26'0 0.0 1023.6 23.8
2018-Jun-18 17:00N 36°46' W 037°26'0 0.5 1023.6 23.9
2018-Jun-18 16:00N 36°46' W 037°27'2 0.8 1023.9 23.8
2018-Jun-18 14:00N 36°46' W 037°29'1 1.1 1024.2 23.9
2018-Jun-18 13:00N 36°46' W 037°30'1 1.0 1024.3 24.0
2018-Jun-18 12:00N 36°46' W 037°31'1 0.8 1024.4 24.0
2018-Jun-18 11:00N 36°45' W 037°32'1 0.6 1024.3 24.0
2018-Jun-18 09:00N 36°44' W 037°33'0 0.5 1024.3 24.0
2018-Jun-18 08:00N 36°44' W 037°34'1 0.6 1024.3 24.0
2018-Jun-18 07:00N 36°44' W 037°34'0 0.5 1024.4 24.1
2018-Jun-18 06:00N 36°44' W 037°34'0 0.5 1024.5 24.0
2018-Jun-18 05:00N 36°44' W 037°35'0 0.5 1024.7 24.0
2018-Jun-18 04:00N 36°44' W 037°35'1 0.8 1025.0 24.1
2018-Jun-18 03:00N 36°43' W 037°36'1 0.6 1025.5 24.1
2018-Jun-18 02:00N 36°43' W 037°36'0 0.0 1026.0 24.2
2018-Jun-18 01:00N 36°43' W 037°36'0 0.5 1026.6 24.2
2018-Jun-18 00:00N 36°43' W 037°37'0 0.0 1026.9 24.3
2018-Jun-17 23:00N 36°43' W 037°37'0 0.5 1026.8 24.3
2018-Jun-17 22:00N 36°43' W 037°36'0 0.0 1026.7 24.4
2018-Jun-17 21:00N 36°43' W 037°36'0 0.0 1026.2 24.4
2018-Jun-17 20:00N 36°43' W 037°36'0 0.5 1026.1 24.4
2018-Jun-17 19:00N 36°43' W 037°37'0 0.5 1026.0 24.5
2018-Jun-17 18:00N 36°43' W 037°37'1 0.8 1026.2 24.5
2018-Jun-17 17:00N 36°43' W 037°38'1 1.0 1026.4 24.5
2018-Jun-17 16:00N 36°43' W 037°39'1 0.8 1026.6 24.5
2018-Jun-17 15:00N 36°43' W 037°40'0 0.5 1026.8 24.5
2018-Jun-17 14:00N 36°43' W 037°40'1 0.8 1027.2 24.4
2018-Jun-17 13:00N 36°42' W 037°41'0 0.5 1027.1 24.3
2018-Jun-17 12:00N 36°42' W 037°41'1 0.8 1027.1 24.2
2018-Jun-17 11:00N 36°41' W 037°42'0 0.0 1027.0 24.2
2018-Jun-17 10:00N 36°41' W 037°42'0 0.5 1027.0 24.1
2018-Jun-17 09:00N 36°41' W 037°43'0 0.5 1027.0 24.1
2018-Jun-17 08:00N 36°41' W 037°43'1 0.8 1026.7 24.1
2018-Jun-17 07:00N 36°41' W 037°44'0 0.5 1026.5 24.2
2018-Jun-17 06:00N 36°41' W 037°44'1 0.8 1026.4 24.3
2018-Jun-17 05:00N 36°40' W 037°45'0 0.5 1026.7 24.3
2018-Jun-17 04:00N 36°40' W 037°46'1 0.6 1026.9 24.3
2018-Jun-17 03:00N 36°40' W 037°46'0 0.0 1027.3 24.3
2018-Jun-17 02:00N 36°40' W 037°46'1 0.6 1027.4 24.4
2018-Jun-17 01:00N 36°39' W 037°46'0 0.0 1028.0 24.4
2018-Jun-17 00:00N 36°39' W 037°46'0 0.5 1028.0 24.4
2018-Jun-16 23:00N 36°39' W 037°46'0 0.5 1028.1 24.5
2018-Jun-16 22:00N 36°39' W 037°47'0 0.5 1027.7 24.5
2018-Jun-16 21:00N 36°39' W 037°47'0 0.5 1027.6 24.6
2018-Jun-16 20:00N 36°39' W 037°48'1 0.8 1027.4 24.6
2018-Jun-16 19:00N 36°38' W 037°49'1 1.0 1027.4 24.7
2018-Jun-16 18:00N 36°38' W 037°50'1 0.8 1027.6 24.7
2018-Jun-16 17:00N 36°38' W 037°50'0 0.5 1027.7 24.7
2018-Jun-16 16:00N 36°38' W 037°51'1 0.8 1027.8 24.7
2018-Jun-16 15:00N 36°37' W 037°52'0 0.5 1027.8 24.7
2018-Jun-16 14:00N 36°37' W 037°52'1 0.6 1028.1 24.6
2018-Jun-16 12:00N 36°36' W 037°53'1 0.8 1028.0 24.3
2018-Jun-16 11:00N 36°35' W 037°53'0 0.5 1028.1 24.2
2018-Jun-16 10:00N 36°35' W 037°54'1 0.6 1028.2 24.1
2018-Jun-16 09:00N 36°35' W 037°54'0 0.5 1027.9 24.1
2018-Jun-16 08:00N 36°35' W 037°55'0 0.0 1027.6 24.1
2018-Jun-16 07:00N 36°35' W 037°55'0 0.5 1027.4 24.1
2018-Jun-16 06:00N 36°35' W 037°55'0 0.5 1027.1 24.0
2018-Jun-16 05:00N 36°35' W 037°56'1 1.0 1027.3 24.1
2018-Jun-16 04:00N 36°35' W 037°57'1 0.8 1027.4 24.2
2018-Jun-16 03:00N 36°34' W 037°58'1 1.2 1027.8 24.2
2018-Jun-16 02:00N 36°33' W 037°58'1 0.8 1028.0 24.3
2018-Jun-16 01:00N 36°32' W 037°58'0 0.0 1028.2 24.4
2018-Jun-16 00:00N 36°32' W 037°58'1 0.6 1028.2 24.4
2018-Jun-15 23:00N 36°32' W 037°58'0 0.0 1027.9 24.4
2018-Jun-15 22:00N 36°32' W 037°58'0 0.0 1027.6 24.4
2018-Jun-15 21:00N 36°32' W 037°58'0 0.5 1027.6 24.5
2018-Jun-15 20:00N 36°32' W 037°59'0 0.5 1027.5 24.6
2018-Jun-15 19:00N 36°32' W 037°59'1 0.8 1027.4 24.6
2018-Jun-15 18:00N 36°31' W 038°00'0 0.5 1027.6 24.6
2018-Jun-15 17:00N 36°31' W 038°01'1 0.8 1027.7 24.6
2018-Jun-15 16:00N 36°31' W 038°01'1 0.8 1027.9 24.5
2018-Jun-15 15:00N 36°30' W 038°02'1 0.3 1027.9 24.5
2018-Jun-15 13:00N 36°29' W 038°02'0 0.5 1028.0 24.3
2018-Jun-15 12:00N 36°29' W 038°02'0 0.0 1027.9 24.2
2018-Jun-15 11:00N 36°29' W 038°02'0 0.5 1028.0 24.0
2018-Jun-15 10:00N 36°29' W 038°03'0 0.0 1028.0 24.1
2018-Jun-15 09:00N 36°29' W 038°03'0 0.5 1027.8 24.0
2018-Jun-15 08:00N 36°29' W 038°04'0 0.5 1027.5 24.0
2018-Jun-15 07:00N 36°29' W 038°04'0 0.5 1027.2 24.1
2018-Jun-15 06:00N 36°29' W 038°05'1 0.4 1027.1 24.1
2018-Jun-15 04:00N 36°29' W 038°05'0 0.5 1027.3 24.1
2018-Jun-15 03:00N 36°29' W 038°06'1 0.8 1027.5 24.1
2018-Jun-15 02:00N 36°28' W 038°07'1 0.6 1028.0 24.2
2018-Jun-15 01:00N 36°28' W 038°07'0 0.5 1028.3 24.2
2018-Jun-15 00:00N 36°28' W 038°07'0 0.0 1028.3 24.3
2018-Jun-14 23:00N 36°28' W 038°07'1 0.6 1027.9 24.3
2018-Jun-14 22:00N 36°27' W 038°07'0 0.5 1027.9 24.3
2018-Jun-14 21:00N 36°27' W 038°08'0 0.0 1027.7 24.4
2018-Jun-14 20:00N 36°27' W 038°08'0 0.5 1027.5 24.4
2018-Jun-14 19:00N 36°27' W 038°08'0 0.0 1027.5 24.5
2018-Jun-14 18:00N 36°27' W 038°08'1 0.6 1027.7 24.6
2018-Jun-14 17:00N 36°28' W 038°08'1 0.5 1027.6 24.5
2018-Jun-14 15:00N 36°28' W 038°10'0 0.5 1027.6 24.3
2018-Jun-14 14:00N 36°28' W 038°10'0 0.0 1027.9 24.1
2018-Jun-14 13:00N 36°28' W 038°10'1 0.4 1027.9 24.0
2018-Jun-14 11:00N 36°28' W 038°11'0 0.5 1027.6 23.8
2018-Jun-14 10:00N 36°28' W 038°11'0 0.5 1027.6 23.7
2018-Jun-14 09:00N 36°28' W 038°12'1 0.8 1027.5 23.7
2018-Jun-14 08:00N 36°29' W 038°13'1 1.0 1027.2 23.6
2018-Jun-14 07:00N 36°29' W 038°14'1 0.8 1027.0 23.6
2018-Jun-14 06:00N 36°28' W 038°14'0 0.5 1026.9 23.6
2018-Jun-14 05:00N 36°28' W 038°15'0 0.5 1026.8 23.7
2018-Jun-14 04:00N 36°28' W 038°16'1 0.6 1026.9 23.7
2018-Jun-14 03:00N 36°28' W 038°16'0 0.0 1027.2 23.7
2018-Jun-14 02:00N 36°28' W 038°16'0 0.5 1027.4 23.7
2018-Jun-14 01:00N 36°28' W 038°16'0 0.0 1027.9 23.8
2018-Jun-14 00:00N 36°28' W 038°16'0 0.2 1027.9 23.7
2018-Jun-13 22:00N 36°28' W 038°17'0 0.5 1027.4 23.8
2018-Jun-13 21:00N 36°28' W 038°17'0 0.0 1027.1 23.8
2018-Jun-13 20:00N 36°28' W 038°17'1 0.8 1026.9 23.8
2018-Jun-13 19:00N 36°28' W 038°18'0 0.0 1026.9 23.9
2018-Jun-13 18:00N 36°28' W 038°18'1 0.8 1026.8 23.9
2018-Jun-13 17:00N 36°29' W 038°19'0 0.0 1026.9 23.9
2018-Jun-13 16:00N 36°29' W 038°19'1 1.1 1026.9 23.9
2018-Jun-13 15:00N 36°29' W 038°20'0 0.5 1027.1 23.9
2018-Jun-13 14:00N 36°29' W 038°20'1 0.8 1027.0 23.8
2018-Jun-13 13:00N 36°30' W 038°21'1 1.0 1027.1 23.7
2018-Jun-13 12:00N 36°30' W 038°22'1 0.8 1027.0 23.6
2018-Jun-13 11:00N 36°31' W 038°23'0 0.5 1026.9 23.5
2018-Jun-13 10:00N 36°31' W 038°23'1 1.0 1026.6 23.5
2018-Jun-13 09:00N 36°31' W 038°25'0 0.5 1026.2 23.5
2018-Jun-13 08:00N 36°31' W 038°25'0 0.5 1025.9 23.5
2018-Jun-13 07:00N 36°31' W 038°26'0 0.5 1025.6 23.5
2018-Jun-13 06:00N 36°31' W 038°26'0 0.5 1025.4 23.5
2018-Jun-13 05:00N 36°31' W 038°27'0 0.5 1025.4 23.5
2018-Jun-13 04:00N 36°31' W 038°28'0 0.5 1025.4 23.5
2018-Jun-13 03:00N 36°31' W 038°28'1 0.6 1025.5 23.5
2018-Jun-13 02:00N 36°31' W 038°28'0 0.5 1025.4 23.6
2018-Jun-13 01:00N 36°31' W 038°29'1 1.0 1025.8 23.6
2018-Jun-13 00:00N 36°31' W 038°30'0 0.5 1025.8 23.6
2018-Jun-12 23:00N 36°31' W 038°31'1 0.8 1025.4 23.6
2018-Jun-12 22:00N 36°32' W 038°31'0 0.5 1024.9 23.7
2018-Jun-12 21:00N 36°32' W 038°32'0 0.5 1024.9 23.8
2018-Jun-12 20:00N 36°32' W 038°32'1 0.8 1024.6 23.9
2018-Jun-12 19:00N 36°32' W 038°33'1 1.3 1024.7 23.9
2018-Jun-12 18:00N 36°34' W 038°34'1 0.8 1024.8 23.9
2018-Jun-12 17:00N 36°34' W 038°34'1 1.1 1025.0 23.9
2018-Jun-12 16:00N 36°35' W 038°35'2 1.5 1025.2 23.8
2018-Jun-12 15:00N 36°36' W 038°37'1 1.0 1025.1 23.8
2018-Jun-12 14:00N 36°36' W 038°38'2 1.6 1025.1 23.8
2018-Jun-12 13:00N 36°37' W 038°40'1 1.0 1025.1 23.8
2018-Jun-12 12:00N 36°37' W 038°41'1 1.4 1024.9 23.7
2018-Jun-12 11:00N 36°37' W 038°43'1 0.8 1024.6 23.6
2018-Jun-12 10:00N 36°36' W 038°43'1 1.0 1024.2 23.5
2018-Jun-12 09:00N 36°36' W 038°44'1 0.8 1024.0 23.5
2018-Jun-12 08:00N 36°35' W 038°45'1 1.0 1023.7 23.6
2018-Jun-12 07:00N 36°35' W 038°46'0 0.5 1023.1 23.6
2018-Jun-12 06:00N 36°35' W 038°47'0 0.5 1023.2 23.5
2018-Jun-12 05:00N 36°35' W 038°47'0 0.5 1023.3 23.6
2018-Jun-12 04:00N 36°35' W 038°48'0 0.5 1023.9 23.6
2018-Jun-12 03:00N 36°35' W 038°49'   1023.9 23.6
Track history (hours):
 
Tides and Currents Weather Stations Pressure Air Temp Water Temp Dewpoint Dewpoint Depression Visibility Wind Speed Wind Dir Waves Ship Positions

Drifting buoy 44887

Last reported at 2018-Jun-22 03:00 UTC. Time now 2018-Jun-22 11:10 UTC.
Position N 36°39' W 036°50'.

Barometer 1028.0 mb
Water temperature 23.9 ° C

Date/timePositionNaut miles runAvg speedWind from/ knotsBaromVisibWave heightAir tempDewpointWater temp
2018-Jun-22 03:00N 36°39' W 036°50'1 0.8 1028.0 23.9
2018-Jun-22 02:00N 36°40' W 036°51'1 1.3 1028.2 24.0
2018-Jun-22 01:00N 36°41' W 036°52'1 1.0 1028.4 24.0
2018-Jun-22 00:00N 36°41' W 036°53'2 0.8 1028.5 24.0
2018-Jun-21 22:00N 36°41' W 036°55'0 0.5 1027.8 24.1
2018-Jun-21 21:00N 36°41' W 036°55'0 0.5 1027.5 24.1
2018-Jun-21 20:00N 36°41' W 036°56'1 1.1 1027.2 24.2
2018-Jun-21 19:00N 36°41' W 036°57'0 0.5 1027.0 24.3
2018-Jun-21 18:00N 36°41' W 036°58'1 0.8 1027.0 24.3
2018-Jun-21 17:00N 36°40' W 036°58'1 0.6 1027.3 24.3
2018-Jun-21 16:00N 36°40' W 036°58'0 0.0 1027.3 24.3
2018-Jun-21 15:00N 36°40' W 036°58'1 0.6 1027.6 24.2
2018-Jun-21 14:00N 36°40' W 036°58'0 0.0 1027.6 24.1
2018-Jun-21 13:00N 36°40' W 036°58'1 0.6 1027.7 24.1
2018-Jun-21 12:00N 36°41' W 036°58'1 0.6 1027.1 24.1
2018-Jun-21 11:00N 36°41' W 036°58'1 0.6 1026.9 24.0
2018-Jun-21 10:00N 36°42' W 036°58'1 1.1 1026.8 23.9
2018-Jun-21 09:00N 36°43' W 036°59'0 0.5 1026.4 23.9
2018-Jun-21 08:00N 36°43' W 037°00'1 1.0 1025.8 23.9
2018-Jun-21 07:00N 36°43' W 037°01'1 1.0 1025.4 23.9
2018-Jun-21 06:00N 36°43' W 037°02'1 1.1 1025.3 23.9
2018-Jun-21 05:00N 36°42' W 037°04'1 0.8 1025.3 23.8
2018-Jun-21 04:00N 36°41' W 037°04'0 0.0 1025.5 23.9
2018-Jun-21 03:00N 36°41' W 037°04'1 0.6 1025.7 23.9
2018-Jun-21 02:00N 36°41' W 037°04'0 0.0 1026.1 23.9
2018-Jun-21 01:00N 36°41' W 037°04'0 0.5 1026.4 23.9
2018-Jun-21 00:00N 36°41' W 037°04'0 0.0 1026.4 23.9
2018-Jun-20 23:00N 36°41' W 037°04'1 0.8 1026.1 23.9
2018-Jun-20 22:00N 36°41' W 037°03'0 0.5 1025.6 24.0
2018-Jun-20 21:00N 36°41' W 037°04'0 0.0 1025.2 24.0
2018-Jun-20 20:00N 36°41' W 037°04'1 0.8 1024.8 24.0
2018-Jun-20 19:00N 36°42' W 037°04'0 0.5 1024.5 24.1
2018-Jun-20 18:00N 36°42' W 037°05'0 0.5 1024.6 24.1
2018-Jun-20 17:00N 36°42' W 037°05'0 0.5 1024.5 24.0
2018-Jun-20 16:00N 36°42' W 037°06'1 0.8 1024.5 23.9
2018-Jun-20 15:00N 36°43' W 037°07'0 0.5 1024.6 23.6
2018-Jun-20 14:00N 36°43' W 037°07'0 0.0 1024.5 23.7
2018-Jun-20 13:00N 36°43' W 037°07'0 0.5 1024.5 23.6
2018-Jun-20 12:00N 36°43' W 037°08'1 0.8 1024.3 23.6
2018-Jun-20 11:00N 36°43' W 037°08'0 0.0 1024.1 23.5
2018-Jun-20 10:00N 36°43' W 037°08'0 0.5 1024.0 23.5
2018-Jun-20 09:00N 36°43' W 037°09'1 1.0 1023.5 23.5
2018-Jun-20 08:00N 36°43' W 037°10'0 0.5 1023.3 23.5
2018-Jun-20 07:00N 36°43' W 037°11'1 0.8 1022.8 23.5
2018-Jun-20 06:00N 36°43' W 037°11'1 0.8 1022.6 23.6
2018-Jun-20 05:00N 36°42' W 037°12'0 0.0 1022.8 23.6
2018-Jun-20 04:00N 36°42' W 037°12'1 0.6 1022.9 23.6
2018-Jun-20 03:00N 36°41' W 037°12'0 0.0 1023.2 23.6
2018-Jun-20 02:00N 36°41' W 037°12'0 0.0 1023.4 23.6
2018-Jun-20 01:00N 36°41' W 037°12'0 0.0 1024.0 23.6
2018-Jun-20 00:00N 36°41' W 037°12'0 0.0 1024.0 23.6
2018-Jun-19 23:00N 36°41' W 037°12'1 0.6 1023.6 23.7
2018-Jun-19 22:00N 36°42' W 037°12'0 0.0 1023.4 23.7
2018-Jun-19 21:00N 36°42' W 037°12'1 0.8 1023.5 23.7
2018-Jun-19 20:00N 36°43' W 037°13'0 0.0 1023.1 23.7
2018-Jun-19 19:00N 36°43' W 037°13'1 1.1 1023.1 23.7
2018-Jun-19 18:00N 36°43' W 037°14'0 0.5 1023.2 23.7
2018-Jun-19 17:00N 36°43' W 037°14'0 0.5 1023.2 23.7
2018-Jun-19 16:00N 36°43' W 037°15'0 0.0 1023.4 23.7
2018-Jun-19 15:00N 36°43' W 037°15'0 0.5 1023.4 23.6
2018-Jun-19 14:00N 36°43' W 037°16'1 0.6 1023.4 23.6
2018-Jun-19 13:00N 36°44' W 037°16'0 0.5 1023.2 23.6
2018-Jun-19 12:00N 36°44' W 037°16'0 0.5 1023.4 23.6
2018-Jun-19 11:00N 36°44' W 037°17'1 0.8 1023.0 23.6
2018-Jun-19 10:00N 36°44' W 037°17'0 0.5 1023.1 23.6
2018-Jun-19 09:00N 36°44' W 037°18'1 0.8 1022.8 23.6
2018-Jun-19 08:00N 36°45' W 037°19'1 1.0 1022.6 23.6
2018-Jun-19 07:00N 36°45' W 037°20'0 0.5 1022.5 23.6
2018-Jun-19 06:00N 36°45' W 037°20'1 0.8 1022.5 23.6
2018-Jun-19 05:00N 36°44' W 037°21'0 0.5 1022.6 23.6
2018-Jun-19 04:00N 36°44' W 037°22'0 0.0 1022.7 23.6
2018-Jun-19 03:00N 36°44' W 037°22'0 0.0 1022.9 23.6
2018-Jun-19 02:00N 36°44' W 037°22'1 0.8 1023.3 23.7
2018-Jun-19 01:00N 36°45' W 037°22'1 0.3 1023.6 23.7
2018-Jun-18 22:00N 36°45' W 037°23'1 0.8 1023.5 23.7
2018-Jun-18 21:00N 36°46' W 037°24'1 1.0 1023.8 23.8
2018-Jun-18 20:00N 36°46' W 037°25'0 0.5 1023.4 23.8
2018-Jun-18 19:00N 36°46' W 037°26'0 0.5 1023.5 23.8
2018-Jun-18 18:00N 36°46' W 037°26'0 0.0 1023.6 23.8
2018-Jun-18 17:00N 36°46' W 037°26'0 0.5 1023.6 23.9
2018-Jun-18 16:00N 36°46' W 037°27'2 0.8 1023.9 23.8
2018-Jun-18 14:00N 36°46' W 037°29'1 1.1 1024.2 23.9
2018-Jun-18 13:00N 36°46' W 037°30'1 1.0 1024.3 24.0
2018-Jun-18 12:00N 36°46' W 037°31'1 0.8 1024.4 24.0
2018-Jun-18 11:00N 36°45' W 037°32'1 0.6 1024.3 24.0
2018-Jun-18 09:00N 36°44' W 037°33'0 0.5 1024.3 24.0
2018-Jun-18 08:00N 36°44' W 037°34'1 0.6 1024.3 24.0
2018-Jun-18 07:00N 36°44' W 037°34'0 0.5 1024.4 24.1
2018-Jun-18 06:00N 36°44' W 037°34'0 0.5 1024.5 24.0
2018-Jun-18 05:00N 36°44' W 037°35'0 0.5 1024.7 24.0
2018-Jun-18 04:00N 36°44' W 037°35'1 0.8 1025.0 24.1
2018-Jun-18 03:00N 36°43' W 037°36'1 0.6 1025.5 24.1
2018-Jun-18 02:00N 36°43' W 037°36'0 0.0 1026.0 24.2
2018-Jun-18 01:00N 36°43' W 037°36'0 0.5 1026.6 24.2
2018-Jun-18 00:00N 36°43' W 037°37'0 0.0 1026.9 24.3
2018-Jun-17 23:00N 36°43' W 037°37'0 0.5 1026.8 24.3
2018-Jun-17 22:00N 36°43' W 037°36'0 0.0 1026.7 24.4
2018-Jun-17 21:00N 36°43' W 037°36'0 0.0 1026.2 24.4
2018-Jun-17 20:00N 36°43' W 037°36'0 0.5 1026.1 24.4
2018-Jun-17 19:00N 36°43' W 037°37'0 0.5 1026.0 24.5
2018-Jun-17 18:00N 36°43' W 037°37'1 0.8 1026.2 24.5
2018-Jun-17 17:00N 36°43' W 037°38'1 1.0 1026.4 24.5
2018-Jun-17 16:00N 36°43' W 037°39'1 0.8 1026.6 24.5
2018-Jun-17 15:00N 36°43' W 037°40'0 0.5 1026.8 24.5
2018-Jun-17 14:00N 36°43' W 037°40'1 0.8 1027.2 24.4
2018-Jun-17 13:00N 36°42' W 037°41'0 0.5 1027.1 24.3
2018-Jun-17 12:00N 36°42' W 037°41'1 0.8 1027.1 24.2
2018-Jun-17 11:00N 36°41' W 037°42'0 0.0 1027.0 24.2
2018-Jun-17 10:00N 36°41' W 037°42'0 0.5 1027.0 24.1
2018-Jun-17 09:00N 36°41' W 037°43'0 0.5 1027.0 24.1
2018-Jun-17 08:00N 36°41' W 037°43'1 0.8 1026.7 24.1
2018-Jun-17 07:00N 36°41' W 037°44'0 0.5 1026.5 24.2
2018-Jun-17 06:00N 36°41' W 037°44'1 0.8 1026.4 24.3
2018-Jun-17 05:00N 36°40' W 037°45'0 0.5 1026.7 24.3
2018-Jun-17 04:00N 36°40' W 037°46'1 0.6 1026.9 24.3
2018-Jun-17 03:00N 36°40' W 037°46'0 0.0 1027.3 24.3
2018-Jun-17 02:00N 36°40' W 037°46'1 0.6 1027.4 24.4
2018-Jun-17 01:00N 36°39' W 037°46'0 0.0 1028.0 24.4
2018-Jun-17 00:00N 36°39' W 037°46'0 0.5 1028.0 24.4
2018-Jun-16 23:00N 36°39' W 037°46'0 0.5 1028.1 24.5
2018-Jun-16 22:00N 36°39' W 037°47'0 0.5 1027.7 24.5
2018-Jun-16 21:00N 36°39' W 037°47'0 0.5 1027.6 24.6
2018-Jun-16 20:00N 36°39' W 037°48'1 0.8 1027.4 24.6
2018-Jun-16 19:00N 36°38' W 037°49'1 1.0 1027.4 24.7
2018-Jun-16 18:00N 36°38' W 037°50'1 0.8 1027.6 24.7
2018-Jun-16 17:00N 36°38' W 037°50'0 0.5 1027.7 24.7
2018-Jun-16 16:00N 36°38' W 037°51'1 0.8 1027.8 24.7
2018-Jun-16 15:00N 36°37' W 037°52'0 0.5 1027.8 24.7
2018-Jun-16 14:00N 36°37' W 037°52'1 0.6 1028.1 24.6
2018-Jun-16 12:00N 36°36' W 037°53'1 0.8 1028.0 24.3
2018-Jun-16 11:00N 36°35' W 037°53'0 0.5 1028.1 24.2
2018-Jun-16 10:00N 36°35' W 037°54'1 0.6 1028.2 24.1
2018-Jun-16 09:00N 36°35' W 037°54'0 0.5 1027.9 24.1
2018-Jun-16 08:00N 36°35' W 037°55'0 0.0 1027.6 24.1
2018-Jun-16 07:00N 36°35' W 037°55'0 0.5 1027.4 24.1
2018-Jun-16 06:00N 36°35' W 037°55'0 0.5 1027.1 24.0
2018-Jun-16 05:00N 36°35' W 037°56'1 1.0 1027.3 24.1
2018-Jun-16 04:00N 36°35' W 037°57'1 0.8 1027.4 24.2
2018-Jun-16 03:00N 36°34' W 037°58'1 1.2 1027.8 24.2
2018-Jun-16 02:00N 36°33' W 037°58'1 0.8 1028.0 24.3
2018-Jun-16 01:00N 36°32' W 037°58'0 0.0 1028.2 24.4
2018-Jun-16 00:00N 36°32' W 037°58'1 0.6 1028.2 24.4
2018-Jun-15 23:00N 36°32' W 037°58'0 0.0 1027.9 24.4
2018-Jun-15 22:00N 36°32' W 037°58'0 0.0 1027.6 24.4
2018-Jun-15 21:00N 36°32' W 037°58'0 0.5 1027.6 24.5
2018-Jun-15 20:00N 36°32' W 037°59'0 0.5 1027.5 24.6
2018-Jun-15 19:00N 36°32' W 037°59'1 0.8 1027.4 24.6
2018-Jun-15 18:00N 36°31' W 038°00'0 0.5 1027.6 24.6
2018-Jun-15 17:00N 36°31' W 038°01'1 0.8 1027.7 24.6
2018-Jun-15 16:00N 36°31' W 038°01'1 0.8 1027.9 24.5
2018-Jun-15 15:00N 36°30' W 038°02'1 0.3 1027.9 24.5
2018-Jun-15 13:00N 36°29' W 038°02'0 0.5 1028.0 24.3
2018-Jun-15 12:00N 36°29' W 038°02'0 0.0 1027.9 24.2
2018-Jun-15 11:00N 36°29' W 038°02'0 0.5 1028.0 24.0
2018-Jun-15 10:00N 36°29' W 038°03'0 0.0 1028.0 24.1
2018-Jun-15 09:00N 36°29' W 038°03'0 0.5 1027.8 24.0
2018-Jun-15 08:00N 36°29' W 038°04'0 0.5 1027.5 24.0
2018-Jun-15 07:00N 36°29' W 038°04'0 0.5 1027.2 24.1
2018-Jun-15 06:00N 36°29' W 038°05'1 0.4 1027.1 24.1
2018-Jun-15 04:00N 36°29' W 038°05'0 0.5 1027.3 24.1
2018-Jun-15 03:00N 36°29' W 038°06'1 0.8 1027.5 24.1
2018-Jun-15 02:00N 36°28' W 038°07'1 0.6 1028.0 24.2
2018-Jun-15 01:00N 36°28' W 038°07'0 0.5 1028.3 24.2
2018-Jun-15 00:00N 36°28' W 038°07'0 0.0 1028.3 24.3
2018-Jun-14 23:00N 36°28' W 038°07'1 0.6 1027.9 24.3
2018-Jun-14 22:00N 36°27' W 038°07'0 0.5 1027.9 24.3
2018-Jun-14 21:00N 36°27' W 038°08'0 0.0 1027.7 24.4
2018-Jun-14 20:00N 36°27' W 038°08'0 0.5 1027.5 24.4
2018-Jun-14 19:00N 36°27' W 038°08'0 0.0 1027.5 24.5
2018-Jun-14 18:00N 36°27' W 038°08'1 0.6 1027.7 24.6
2018-Jun-14 17:00N 36°28' W 038°08'1 0.5 1027.6 24.5
2018-Jun-14 15:00N 36°28' W 038°10'0 0.5 1027.6 24.3
2018-Jun-14 14:00N 36°28' W 038°10'0 0.0 1027.9 24.1
2018-Jun-14 13:00N 36°28' W 038°10'1 0.4 1027.9 24.0
2018-Jun-14 11:00N 36°28' W 038°11'0 0.5 1027.6 23.8
2018-Jun-14 10:00N 36°28' W 038°11'0 0.5 1027.6 23.7
2018-Jun-14 09:00N 36°28' W 038°12'1 0.8 1027.5 23.7
2018-Jun-14 08:00N 36°29' W 038°13'1 1.0 1027.2 23.6
2018-Jun-14 07:00N 36°29' W 038°14'1 0.8 1027.0 23.6
2018-Jun-14 06:00N 36°28' W 038°14'0 0.5 1026.9 23.6
2018-Jun-14 05:00N 36°28' W 038°15'0 0.5 1026.8 23.7
2018-Jun-14 04:00N 36°28' W 038°16'1 0.6 1026.9 23.7
2018-Jun-14 03:00N 36°28' W 038°16'0 0.0 1027.2 23.7
2018-Jun-14 02:00N 36°28' W 038°16'0 0.5 1027.4 23.7
2018-Jun-14 01:00N 36°28' W 038°16'0 0.0 1027.9 23.8
2018-Jun-14 00:00N 36°28' W 038°16'0 0.2 1027.9 23.7
2018-Jun-13 22:00N 36°28' W 038°17'0 0.5 1027.4 23.8
2018-Jun-13 21:00N 36°28' W 038°17'0 0.0 1027.1 23.8
2018-Jun-13 20:00N 36°28' W 038°17'1 0.8 1026.9 23.8
2018-Jun-13 19:00N 36°28' W 038°18'0 0.0 1026.9 23.9
2018-Jun-13 18:00N 36°28' W 038°18'1 0.8 1026.8 23.9
2018-Jun-13 17:00N 36°29' W 038°19'0 0.0 1026.9 23.9
2018-Jun-13 16:00N 36°29' W 038°19'1 1.1 1026.9 23.9
2018-Jun-13 15:00N 36°29' W 038°20'0 0.5 1027.1 23.9
2018-Jun-13 14:00N 36°29' W 038°20'1 0.8 1027.0 23.8
2018-Jun-13 13:00N 36°30' W 038°21'1 1.0 1027.1 23.7
2018-Jun-13 12:00N 36°30' W 038°22'1 0.8 1027.0 23.6
2018-Jun-13 11:00N 36°31' W 038°23'0 0.5 1026.9 23.5
2018-Jun-13 10:00N 36°31' W 038°23'1 1.0 1026.6 23.5
2018-Jun-13 09:00N 36°31' W 038°25'0 0.5 1026.2 23.5
2018-Jun-13 08:00N 36°31' W 038°25'0 0.5 1025.9 23.5
2018-Jun-13 07:00N 36°31' W 038°26'0 0.5 1025.6 23.5
2018-Jun-13 06:00N 36°31' W 038°26'0 0.5 1025.4 23.5
2018-Jun-13 05:00N 36°31' W 038°27'0 0.5 1025.4 23.5
2018-Jun-13 04:00N 36°31' W 038°28'0 0.5 1025.4 23.5
2018-Jun-13 03:00N 36°31' W 038°28'1 0.6 1025.5 23.5
2018-Jun-13 02:00N 36°31' W 038°28'0 0.5 1025.4 23.6
2018-Jun-13 01:00N 36°31' W 038°29'1 1.0 1025.8 23.6
2018-Jun-13 00:00N 36°31' W 038°30'0 0.5 1025.8 23.6
2018-Jun-12 23:00N 36°31' W 038°31'1 0.8 1025.4 23.6
2018-Jun-12 22:00N 36°32' W 038°31'0 0.5 1024.9 23.7
2018-Jun-12 21:00N 36°32' W 038°32'0 0.5 1024.9 23.8
2018-Jun-12 20:00N 36°32' W 038°32'1 0.8 1024.6 23.9
2018-Jun-12 19:00N 36°32' W 038°33'1 1.3 1024.7 23.9
2018-Jun-12 18:00N 36°34' W 038°34'1 0.8 1024.8 23.9
2018-Jun-12 17:00N 36°34' W 038°34'1 1.1 1025.0 23.9
2018-Jun-12 16:00N 36°35' W 038°35'2 1.5 1025.2 23.8
2018-Jun-12 15:00N 36°36' W 038°37'1 1.0 1025.1 23.8
2018-Jun-12 14:00N 36°36' W 038°38'2 1.6 1025.1 23.8
2018-Jun-12 13:00N 36°37' W 038°40'1 1.0 1025.1 23.8
2018-Jun-12 12:00N 36°37' W 038°41'1 1.4 1024.9 23.7
2018-Jun-12 11:00N 36°37' W 038°43'1 0.8 1024.6 23.6
2018-Jun-12 10:00N 36°36' W 038°43'1 1.0 1024.2 23.5
2018-Jun-12 09:00N 36°36' W 038°44'1 0.8 1024.0 23.5
2018-Jun-12 08:00N 36°35' W 038°45'1 1.0 1023.7 23.6
2018-Jun-12 07:00N 36°35' W 038°46'0 0.5 1023.1 23.6
2018-Jun-12 06:00N 36°35' W 038°47'0 0.5 1023.2 23.5
2018-Jun-12 05:00N 36°35' W 038°47'0 0.5 1023.3 23.6
2018-Jun-12 04:00N 36°35' W 038°48'0 0.5 1023.9 23.6
2018-Jun-12 03:00N 36°35' W 038°49'   1023.9 23.6

Dump ship's entire track history